sensor_id;sensor_type;location;lat;lon;timestamp;P1;durP1;ratioP1;P2;durP2;ratioP2
842;SDS011;407;48.884;9.126;2023-04-10T00:02:07;15.10;;;6.83;;
842;SDS011;407;48.884;9.126;2023-04-10T00:04:33;17.73;;;7.33;;
842;SDS011;407;48.884;9.126;2023-04-10T00:06:58;16.90;;;7.72;;
842;SDS011;407;48.884;9.126;2023-04-10T00:09:24;18.00;;;8.13;;
842;SDS011;407;48.884;9.126;2023-04-10T00:11:50;17.95;;;8.05;;
842;SDS011;407;48.884;9.126;2023-04-10T00:14:17;14.80;;;6.80;;
842;SDS011;407;48.884;9.126;2023-04-10T00:16:47;16.13;;;7.03;;
842;SDS011;407;48.884;9.126;2023-04-10T00:19:13;15.43;;;6.72;;
842;SDS011;407;48.884;9.126;2023-04-10T00:21:39;15.13;;;6.80;;
842;SDS011;407;48.884;9.126;2023-04-10T00:24:05;18.93;;;6.90;;
842;SDS011;407;48.884;9.126;2023-04-10T00:26:30;17.98;;;7.88;;
842;SDS011;407;48.884;9.126;2023-04-10T00:28:56;17.15;;;7.68;;
842;SDS011;407;48.884;9.126;2023-04-10T00:31:22;17.30;;;7.40;;
842;SDS011;407;48.884;9.126;2023-04-10T00:33:48;19.65;;;7.90;;
842;SDS011;407;48.884;9.126;2023-04-10T00:36:13;16.33;;;6.93;;
842;SDS011;407;48.884;9.126;2023-04-10T00:38:39;15.10;;;7.22;;
842;SDS011;407;48.884;9.126;2023-04-10T00:41:05;17.93;;;8.13;;
842;SDS011;407;48.884;9.126;2023-04-10T00:43:31;16.75;;;7.47;;
842;SDS011;407;48.884;9.126;2023-04-10T00:45:57;17.90;;;7.53;;
842;SDS011;407;48.884;9.126;2023-04-10T00:48:23;14.40;;;7.07;;
842;SDS011;407;48.884;9.126;2023-04-10T00:50:49;14.43;;;6.82;;
842;SDS011;407;48.884;9.126;2023-04-10T00:53:15;17.10;;;7.30;;
842;SDS011;407;48.884;9.126;2023-04-10T00:55:41;16.20;;;7.18;;
842;SDS011;407;48.884;9.126;2023-04-10T00:58:07;17.17;;;7.93;;
842;SDS011;407;48.884;9.126;2023-04-10T01:00:38;15.93;;;7.40;;
842;SDS011;407;48.884;9.126;2023-04-10T01:03:04;15.75;;;7.18;;
842;SDS011;407;48.884;9.126;2023-04-10T01:05:31;15.63;;;6.88;;
842;SDS011;407;48.884;9.126;2023-04-10T01:11:00;18.02;;;8.10;;
842;SDS011;407;48.884;9.126;2023-04-10T01:13:57;16.85;;;7.00;;
842;SDS011;407;48.884;9.126;2023-04-10T01:16:41;17.38;;;7.00;;
842;SDS011;407;48.884;9.126;2023-04-10T01:19:28;16.08;;;7.60;;
842;SDS011;407;48.884;9.126;2023-04-10T01:22:07;16.00;;;7.20;;
842;SDS011;407;48.884;9.126;2023-04-10T01:27:35;15.57;;;7.13;;
842;SDS011;407;48.884;9.126;2023-04-10T01:30:11;17.47;;;7.13;;
842;SDS011;407;48.884;9.126;2023-04-10T01:32:41;15.77;;;6.30;;
842;SDS011;407;48.884;9.126;2023-04-10T01:35:08;16.50;;;7.35;;
842;SDS011;407;48.884;9.126;2023-04-10T01:37:37;20.63;;;7.57;;
842;SDS011;407;48.884;9.126;2023-04-10T01:40:07;19.70;;;8.30;;
842;SDS011;407;48.884;9.126;2023-04-10T01:42:38;17.07;;;7.70;;
842;SDS011;407;48.884;9.126;2023-04-10T01:45:11;19.50;;;7.60;;
842;SDS011;407;48.884;9.126;2023-04-10T01:47:41;16.93;;;6.70;;
842;SDS011;407;48.884;9.126;2023-04-10T01:50:07;17.08;;;7.32;;
842;SDS011;407;48.884;9.126;2023-04-10T01:52:33;15.80;;;7.47;;
842;SDS011;407;48.884;9.126;2023-04-10T01:55:00;17.88;;;7.38;;
842;SDS011;407;48.884;9.126;2023-04-10T01:57:28;17.48;;;7.50;;
842;SDS011;407;48.884;9.126;2023-04-10T01:59:55;17.57;;;8.20;;
842;SDS011;407;48.884;9.126;2023-04-10T02:02:21;15.32;;;7.00;;
842;SDS011;407;48.884;9.126;2023-04-10T02:04:47;19.10;;;7.70;;
842;SDS011;407;48.884;9.126;2023-04-10T02:12:36;17.55;;;7.18;;
842;SDS011;407;48.884;9.126;2023-04-10T02:15:05;19.00;;;7.25;;
842;SDS011;407;48.884;9.126;2023-04-10T02:17:32;14.60;;;6.55;;
842;SDS011;407;48.884;9.126;2023-04-10T02:20:00;17.02;;;7.20;;
842;SDS011;407;48.884;9.126;2023-04-10T02:22:28;16.23;;;6.77;;
842;SDS011;407;48.884;9.126;2023-04-10T02:24:54;17.40;;;6.57;;
842;SDS011;407;48.884;9.126;2023-04-10T02:27:28;18.35;;;7.78;;
842;SDS011;407;48.884;9.126;2023-04-10T02:29:55;21.27;;;9.05;;
842;SDS011;407;48.884;9.126;2023-04-10T02:32:21;19.03;;;7.47;;
842;SDS011;407;48.884;9.126;2023-04-10T02:34:47;17.33;;;7.35;;
842;SDS011;407;48.884;9.126;2023-04-10T02:37:15;18.08;;;8.00;;
842;SDS011;407;48.884;9.126;2023-04-10T02:39:40;17.60;;;8.20;;
842;SDS011;407;48.884;9.126;2023-04-10T02:42:06;16.35;;;7.50;;
842;SDS011;407;48.884;9.126;2023-04-10T02:44:32;21.60;;;8.27;;
842;SDS011;407;48.884;9.126;2023-04-10T02:46:57;17.48;;;7.10;;
842;SDS011;407;48.884;9.126;2023-04-10T02:49:23;16.23;;;6.83;;
842;SDS011;407;48.884;9.126;2023-04-10T02:51:50;17.25;;;7.93;;
842;SDS011;407;48.884;9.126;2023-04-10T02:54:15;15.63;;;7.53;;
842;SDS011;407;48.884;9.126;2023-04-10T02:56:41;14.33;;;6.80;;
842;SDS011;407;48.884;9.126;2023-04-10T02:59:09;18.00;;;8.00;;
842;SDS011;407;48.884;9.126;2023-04-10T03:01:34;18.02;;;7.72;;
842;SDS011;407;48.884;9.126;2023-04-10T03:04:00;14.52;;;6.38;;
842;SDS011;407;48.884;9.126;2023-04-10T03:06:27;14.63;;;6.28;;
842;SDS011;407;48.884;9.126;2023-04-10T03:08:54;17.90;;;7.90;;
842;SDS011;407;48.884;9.126;2023-04-10T03:11:21;16.07;;;6.53;;
842;SDS011;407;48.884;9.126;2023-04-10T03:13:46;15.15;;;6.95;;
842;SDS011;407;48.884;9.126;2023-04-10T03:16:19;14.25;;;6.60;;
842;SDS011;407;48.884;9.126;2023-04-10T03:18:44;15.20;;;6.82;;
842;SDS011;407;48.884;9.126;2023-04-10T03:21:10;14.97;;;6.67;;
842;SDS011;407;48.884;9.126;2023-04-10T03:23:36;17.53;;;7.10;;
842;SDS011;407;48.884;9.126;2023-04-10T03:26:02;16.10;;;7.40;;
842;SDS011;407;48.884;9.126;2023-04-10T03:28:28;16.40;;;6.55;;
842;SDS011;407;48.884;9.126;2023-04-10T03:30:54;13.15;;;6.20;;
842;SDS011;407;48.884;9.126;2023-04-10T03:33:20;14.55;;;6.38;;
842;SDS011;407;48.884;9.126;2023-04-10T03:35:46;15.00;;;6.78;;
842;SDS011;407;48.884;9.126;2023-04-10T03:38:12;17.77;;;7.60;;
842;SDS011;407;48.884;9.126;2023-04-10T03:40:38;19.60;;;9.97;;
842;SDS011;407;48.884;9.126;2023-04-10T03:43:03;18.98;;;8.70;;
842;SDS011;407;48.884;9.126;2023-04-10T03:45:29;19.63;;;8.40;;
842;SDS011;407;48.884;9.126;2023-04-10T03:47:55;16.43;;;7.27;;
842;SDS011;407;48.884;9.126;2023-04-10T03:50:21;19.45;;;7.95;;
842;SDS011;407;48.884;9.126;2023-04-10T03:52:46;15.33;;;6.50;;
842;SDS011;407;48.884;9.126;2023-04-10T03:55:13;18.50;;;7.90;;
842;SDS011;407;48.884;9.126;2023-04-10T03:57:43;21.55;;;9.45;;
842;SDS011;407;48.884;9.126;2023-04-10T04:00:15;17.97;;;8.50;;
842;SDS011;407;48.884;9.126;2023-04-10T04:02:41;15.23;;;6.57;;
842;SDS011;407;48.884;9.126;2023-04-10T04:05:08;18.38;;;7.47;;
842;SDS011;407;48.884;9.126;2023-04-10T04:07:33;16.83;;;7.43;;
842;SDS011;407;48.884;9.126;2023-04-10T04:09:59;15.13;;;7.05;;
842;SDS011;407;48.884;9.126;2023-04-10T04:12:25;17.33;;;6.90;;
842;SDS011;407;48.884;9.126;2023-04-10T04:14:51;15.40;;;7.00;;
842;SDS011;407;48.884;9.126;2023-04-10T04:17:18;15.07;;;7.33;;
842;SDS011;407;48.884;9.126;2023-04-10T04:19:44;17.90;;;7.90;;
842;SDS011;407;48.884;9.126;2023-04-10T04:22:10;14.13;;;6.47;;
842;SDS011;407;48.884;9.126;2023-04-10T04:24:35;16.08;;;7.25;;
842;SDS011;407;48.884;9.126;2023-04-10T04:27:01;18.00;;;7.80;;
842;SDS011;407;48.884;9.126;2023-04-10T04:29:27;15.67;;;7.33;;
842;SDS011;407;48.884;9.126;2023-04-10T04:31:53;16.90;;;7.17;;
842;SDS011;407;48.884;9.126;2023-04-10T04:34:18;16.92;;;7.40;;
842;SDS011;407;48.884;9.126;2023-04-10T04:36:44;18.40;;;8.10;;
842;SDS011;407;48.884;9.126;2023-04-10T04:39:10;14.95;;;6.90;;
842;SDS011;407;48.884;9.126;2023-04-10T04:41:35;19.10;;;8.30;;
842;SDS011;407;48.884;9.126;2023-04-10T04:44:01;15.85;;;7.32;;
842;SDS011;407;48.884;9.126;2023-04-10T04:46:27;15.82;;;6.72;;
842;SDS011;407;48.884;9.126;2023-04-10T04:48:53;17.10;;;7.13;;
842;SDS011;407;48.884;9.126;2023-04-10T04:51:19;16.45;;;7.95;;
842;SDS011;407;48.884;9.126;2023-04-10T04:53:45;16.80;;;7.70;;
842;SDS011;407;48.884;9.126;2023-04-10T04:56:10;16.50;;;7.45;;
842;SDS011;407;48.884;9.126;2023-04-10T04:58:36;17.37;;;7.40;;
842;SDS011;407;48.884;9.126;2023-04-10T05:01:02;16.33;;;6.90;;
842;SDS011;407;48.884;9.126;2023-04-10T05:03:27;20.50;;;7.05;;
842;SDS011;407;48.884;9.126;2023-04-10T05:05:53;21.00;;;7.97;;
842;SDS011;407;48.884;9.126;2023-04-10T05:08:19;16.25;;;7.70;;
842;SDS011;407;48.884;9.126;2023-04-10T05:10:45;16.30;;;6.77;;
842;SDS011;407;48.884;9.126;2023-04-10T05:13:11;17.35;;;7.70;;
842;SDS011;407;48.884;9.126;2023-04-10T05:15:37;20.42;;;8.82;;
842;SDS011;407;48.884;9.126;2023-04-10T05:18:04;18.58;;;7.88;;
842;SDS011;407;48.884;9.126;2023-04-10T05:20:30;18.50;;;7.78;;
842;SDS011;407;48.884;9.126;2023-04-10T05:22:58;15.57;;;7.38;;
842;SDS011;407;48.884;9.126;2023-04-10T05:25:23;18.63;;;8.37;;
842;SDS011;407;48.884;9.126;2023-04-10T05:27:49;15.15;;;7.70;;
842;SDS011;407;48.884;9.126;2023-04-10T05:30:16;17.60;;;7.57;;
842;SDS011;407;48.884;9.126;2023-04-10T05:32:42;19.07;;;7.70;;
842;SDS011;407;48.884;9.126;2023-04-10T05:35:08;17.52;;;7.00;;
842;SDS011;407;48.884;9.126;2023-04-10T05:37:33;16.97;;;7.40;;
842;SDS011;407;48.884;9.126;2023-04-10T05:39:59;16.98;;;7.47;;
842;SDS011;407;48.884;9.126;2023-04-10T05:42:25;16.33;;;7.50;;
842;SDS011;407;48.884;9.126;2023-04-10T05:44:50;17.08;;;7.68;;
842;SDS011;407;48.884;9.126;2023-04-10T05:47:16;17.52;;;7.60;;
842;SDS011;407;48.884;9.126;2023-04-10T05:49:42;15.57;;;7.07;;
842;SDS011;407;48.884;9.126;2023-04-10T05:52:08;15.80;;;7.50;;
842;SDS011;407;48.884;9.126;2023-04-10T05:54:33;16.80;;;7.60;;
842;SDS011;407;48.884;9.126;2023-04-10T05:56:59;16.00;;;6.90;;
842;SDS011;407;48.884;9.126;2023-04-10T05:59:25;20.63;;;8.80;;
842;SDS011;407;48.884;9.126;2023-04-10T06:01:51;14.40;;;6.70;;
842;SDS011;407;48.884;9.126;2023-04-10T06:04:17;17.92;;;7.30;;
842;SDS011;407;48.884;9.126;2023-04-10T06:06:42;16.43;;;7.50;;
842;SDS011;407;48.884;9.126;2023-04-10T06:09:08;15.20;;;7.10;;
842;SDS011;407;48.884;9.126;2023-04-10T06:11:34;18.05;;;7.53;;
842;SDS011;407;48.884;9.126;2023-04-10T06:13:59;16.73;;;7.07;;
842;SDS011;407;48.884;9.126;2023-04-10T06:16:25;16.65;;;7.75;;
842;SDS011;407;48.884;9.126;2023-04-10T06:18:51;14.93;;;7.50;;
842;SDS011;407;48.884;9.126;2023-04-10T06:21:18;15.68;;;8.10;;
842;SDS011;407;48.884;9.126;2023-04-10T06:23:43;16.43;;;7.47;;
842;SDS011;407;48.884;9.126;2023-04-10T06:26:09;14.30;;;7.50;;
842;SDS011;407;48.884;9.126;2023-04-10T06:28:34;16.20;;;7.40;;
842;SDS011;407;48.884;9.126;2023-04-10T06:31:01;15.88;;;7.68;;
842;SDS011;407;48.884;9.126;2023-04-10T06:33:29;14.82;;;7.32;;
842;SDS011;407;48.884;9.126;2023-04-10T06:35:55;15.70;;;7.60;;
842;SDS011;407;48.884;9.126;2023-04-10T06:38:23;14.93;;;7.22;;
842;SDS011;407;48.884;9.126;2023-04-10T06:40:49;17.00;;;8.50;;
842;SDS011;407;48.884;9.126;2023-04-10T06:43:14;17.00;;;7.40;;
842;SDS011;407;48.884;9.126;2023-04-10T06:45:40;14.35;;;7.00;;
842;SDS011;407;48.884;9.126;2023-04-10T06:48:06;15.33;;;7.67;;
842;SDS011;407;48.884;9.126;2023-04-10T06:50:31;13.37;;;7.80;;
842;SDS011;407;48.884;9.126;2023-04-10T06:52:57;14.27;;;7.80;;
842;SDS011;407;48.884;9.126;2023-04-10T06:55:24;14.57;;;8.13;;
842;SDS011;407;48.884;9.126;2023-04-10T06:57:50;14.82;;;10.32;;
842;SDS011;407;48.884;9.126;2023-04-10T07:00:17;15.80;;;10.80;;
842;SDS011;407;48.884;9.126;2023-04-10T07:02:43;14.18;;;10.70;;
842;SDS011;407;48.884;9.126;2023-04-10T07:05:08;15.13;;;11.60;;
842;SDS011;407;48.884;9.126;2023-04-10T07:07:34;12.93;;;11.00;;
842;SDS011;407;48.884;9.126;2023-04-10T07:09:59;13.80;;;10.80;;
842;SDS011;407;48.884;9.126;2023-04-10T07:12:25;14.03;;;10.60;;
842;SDS011;407;48.884;9.126;2023-04-10T07:14:51;13.67;;;10.10;;
842;SDS011;407;48.884;9.126;2023-04-10T07:17:16;12.40;;;10.60;;
842;SDS011;407;48.884;9.126;2023-04-10T07:19:42;13.17;;;10.80;;
842;SDS011;407;48.884;9.126;2023-04-10T07:22:07;14.00;;;11.30;;
842;SDS011;407;48.884;9.126;2023-04-10T07:24:33;13.90;;;11.07;;
842;SDS011;407;48.884;9.126;2023-04-10T07:26:58;14.67;;;9.93;;
842;SDS011;407;48.884;9.126;2023-04-10T07:29:25;13.00;;;10.60;;
842;SDS011;407;48.884;9.126;2023-04-10T07:31:51;12.80;;;10.00;;
842;SDS011;407;48.884;9.126;2023-04-10T07:34:16;14.70;;;9.75;;
842;SDS011;407;48.884;9.126;2023-04-10T07:36:42;13.85;;;10.50;;
842;SDS011;407;48.884;9.126;2023-04-10T07:39:08;12.87;;;9.70;;
842;SDS011;407;48.884;9.126;2023-04-10T07:41:34;13.55;;;9.70;;
842;SDS011;407;48.884;9.126;2023-04-10T07:44:00;13.05;;;9.60;;
842;SDS011;407;48.884;9.126;2023-04-10T07:46:25;12.45;;;9.23;;
842;SDS011;407;48.884;9.126;2023-04-10T07:48:51;12.40;;;10.10;;
842;SDS011;407;48.884;9.126;2023-04-10T07:51:18;13.40;;;9.85;;
842;SDS011;407;48.884;9.126;2023-04-10T07:53:45;12.30;;;8.93;;
842;SDS011;407;48.884;9.126;2023-04-10T07:56:14;12.90;;;9.07;;
842;SDS011;407;48.884;9.126;2023-04-10T07:58:41;12.70;;;9.40;;
842;SDS011;407;48.884;9.126;2023-04-10T08:01:07;13.75;;;9.48;;
842;SDS011;407;48.884;9.126;2023-04-10T08:03:42;12.57;;;9.87;;
842;SDS011;407;48.884;9.126;2023-04-10T08:06:09;12.90;;;9.80;;
842;SDS011;407;48.884;9.126;2023-04-10T08:08:36;12.05;;;9.55;;
842;SDS011;407;48.884;9.126;2023-04-10T08:11:26;11.90;;;10.13;;
842;SDS011;407;48.884;9.126;2023-04-10T08:13:53;11.73;;;9.75;;
842;SDS011;407;48.884;9.126;2023-04-10T08:16:27;11.57;;;9.27;;
842;SDS011;407;48.884;9.126;2023-04-10T08:18:55;11.60;;;9.70;;
842;SDS011;407;48.884;9.126;2023-04-10T08:21:22;12.27;;;9.50;;
842;SDS011;407;48.884;9.126;2023-04-10T08:23:52;10.45;;;8.85;;
842;SDS011;407;48.884;9.126;2023-04-10T08:26:18;12.25;;;8.80;;
842;SDS011;407;48.884;9.126;2023-04-10T08:28:48;12.30;;;8.77;;
842;SDS011;407;48.884;9.126;2023-04-10T08:31:19;11.80;;;8.68;;
842;SDS011;407;48.884;9.126;2023-04-10T08:33:47;12.27;;;8.43;;
842;SDS011;407;48.884;9.126;2023-04-10T08:36:13;11.95;;;8.80;;
842;SDS011;407;48.884;9.126;2023-04-10T08:38:40;12.57;;;9.43;;
842;SDS011;407;48.884;9.126;2023-04-10T08:41:08;12.13;;;9.45;;
842;SDS011;407;48.884;9.126;2023-04-10T08:43:35;11.98;;;9.10;;
842;SDS011;407;48.884;9.126;2023-04-10T08:46:01;10.80;;;9.00;;
842;SDS011;407;48.884;9.126;2023-04-10T08:48:30;10.93;;;8.90;;
842;SDS011;407;48.884;9.126;2023-04-10T08:51:02;11.05;;;8.70;;
842;SDS011;407;48.884;9.126;2023-04-10T08:53:30;12.00;;;8.80;;
842;SDS011;407;48.884;9.126;2023-04-10T08:55:57;13.07;;;9.40;;
842;SDS011;407;48.884;9.126;2023-04-10T08:58:26;10.73;;;9.10;;
842;SDS011;407;48.884;9.126;2023-04-10T09:00:52;10.88;;;9.18;;
842;SDS011;407;48.884;9.126;2023-04-10T09:03:18;11.20;;;9.20;;
842;SDS011;407;48.884;9.126;2023-04-10T09:05:44;11.25;;;8.40;;
842;SDS011;407;48.884;9.126;2023-04-10T09:08:09;9.95;;;7.70;;
842;SDS011;407;48.884;9.126;2023-04-10T09:10:36;10.80;;;8.90;;
842;SDS011;407;48.884;9.126;2023-04-10T09:13:01;10.75;;;8.52;;
842;SDS011;407;48.884;9.126;2023-04-10T09:15:27;10.40;;;8.55;;
842;SDS011;407;48.884;9.126;2023-04-10T09:17:53;9.10;;;7.68;;
842;SDS011;407;48.884;9.126;2023-04-10T09:20:30;9.48;;;7.50;;
842;SDS011;407;48.884;9.126;2023-04-10T09:22:56;9.48;;;7.25;;
842;SDS011;407;48.884;9.126;2023-04-10T09:25:27;9.25;;;7.60;;
842;SDS011;407;48.884;9.126;2023-04-10T09:28:02;9.70;;;7.93;;
842;SDS011;407;48.884;9.126;2023-04-10T09:30:35;9.00;;;7.00;;
842;SDS011;407;48.884;9.126;2023-04-10T09:33:21;9.30;;;7.05;;
842;SDS011;407;48.884;9.126;2023-04-10T09:35:49;8.57;;;6.60;;
842;SDS011;407;48.884;9.126;2023-04-10T09:38:15;9.00;;;6.30;;
842;SDS011;407;48.884;9.126;2023-04-10T09:40:42;8.70;;;6.90;;
842;SDS011;407;48.884;9.126;2023-04-10T09:43:21;9.10;;;6.80;;
842;SDS011;407;48.884;9.126;2023-04-10T09:45:50;10.75;;;7.90;;
842;SDS011;407;48.884;9.126;2023-04-10T09:48:16;9.13;;;7.18;;
842;SDS011;407;48.884;9.126;2023-04-10T09:50:42;8.80;;;7.30;;
842;SDS011;407;48.884;9.126;2023-04-10T09:53:18;8.90;;;6.90;;
842;SDS011;407;48.884;9.126;2023-04-10T09:55:45;9.50;;;7.68;;
842;SDS011;407;48.884;9.126;2023-04-10T09:58:12;8.77;;;7.10;;
842;SDS011;407;48.884;9.126;2023-04-10T10:00:40;8.50;;;7.03;;
842;SDS011;407;48.884;9.126;2023-04-10T10:03:08;9.80;;;6.90;;
842;SDS011;407;48.884;9.126;2023-04-10T10:05:36;8.70;;;6.90;;
842;SDS011;407;48.884;9.126;2023-04-10T10:08:09;8.70;;;7.22;;
842;SDS011;407;48.884;9.126;2023-04-10T10:10:40;8.98;;;7.00;;
842;SDS011;407;48.884;9.126;2023-04-10T10:13:14;9.07;;;7.30;;
842;SDS011;407;48.884;9.126;2023-04-10T10:21:08;8.40;;;7.00;;
842;SDS011;407;48.884;9.126;2023-04-10T10:23:34;10.50;;;6.78;;
842;SDS011;407;48.884;9.126;2023-04-10T10:26:03;11.07;;;6.80;;
842;SDS011;407;48.884;9.126;2023-04-10T10:28:30;7.82;;;6.60;;
842;SDS011;407;48.884;9.126;2023-04-10T10:30:58;7.80;;;6.32;;
842;SDS011;407;48.884;9.126;2023-04-10T10:33:25;9.30;;;7.10;;
842;SDS011;407;48.884;9.126;2023-04-10T10:35:53;8.80;;;6.95;;
842;SDS011;407;48.884;9.126;2023-04-10T10:38:22;8.90;;;6.32;;
842;SDS011;407;48.884;9.126;2023-04-10T10:40:53;7.80;;;6.50;;
842;SDS011;407;48.884;9.126;2023-04-10T10:43:47;8.00;;;6.25;;
842;SDS011;407;48.884;9.126;2023-04-10T10:49:13;8.63;;;6.30;;
842;SDS011;407;48.884;9.126;2023-04-10T10:57:00;7.90;;;6.40;;
842;SDS011;407;48.884;9.126;2023-04-10T11:02:16;7.75;;;6.10;;
842;SDS011;407;48.884;9.126;2023-04-10T11:04:46;8.13;;;5.88;;
842;SDS011;407;48.884;9.126;2023-04-10T11:07:13;8.15;;;5.90;;
842;SDS011;407;48.884;9.126;2023-04-10T11:09:52;7.40;;;5.78;;
842;SDS011;407;48.884;9.126;2023-04-10T11:12:22;8.00;;;6.10;;
842;SDS011;407;48.884;9.126;2023-04-10T11:14:58;7.50;;;5.70;;
842;SDS011;407;48.884;9.126;2023-04-10T11:20:17;8.50;;;6.20;;
842;SDS011;407;48.884;9.126;2023-04-10T11:25:44;7.80;;;5.60;;
842;SDS011;407;48.884;9.126;2023-04-10T11:33:46;8.50;;;5.50;;
842;SDS011;407;48.884;9.126;2023-04-10T11:36:13;7.60;;;5.80;;
842;SDS011;407;48.884;9.126;2023-04-10T11:38:49;7.55;;;5.35;;
842;SDS011;407;48.884;9.126;2023-04-10T11:41:18;7.00;;;5.17;;
842;SDS011;407;48.884;9.126;2023-04-10T11:43:44;6.60;;;5.18;;
842;SDS011;407;48.884;9.126;2023-04-10T11:46:10;6.80;;;4.85;;
842;SDS011;407;48.884;9.126;2023-04-10T11:48:36;6.90;;;5.00;;
842;SDS011;407;48.884;9.126;2023-04-10T11:51:08;6.78;;;5.07;;
842;SDS011;407;48.884;9.126;2023-04-10T11:53:35;6.78;;;5.20;;
842;SDS011;407;48.884;9.126;2023-04-10T11:56:01;6.60;;;5.13;;
842;SDS011;407;48.884;9.126;2023-04-10T11:58:27;6.38;;;4.80;;
842;SDS011;407;48.884;9.126;2023-04-10T12:01:03;6.40;;;4.45;;
842;SDS011;407;48.884;9.126;2023-04-10T12:03:39;6.85;;;4.88;;
842;SDS011;407;48.884;9.126;2023-04-10T12:06:11;5.90;;;4.30;;
842;SDS011;407;48.884;9.126;2023-04-10T12:08:39;6.45;;;4.55;;
842;SDS011;407;48.884;9.126;2023-04-10T12:11:07;5.97;;;4.30;;
842;SDS011;407;48.884;9.126;2023-04-10T12:13:34;6.15;;;4.30;;
842;SDS011;407;48.884;9.126;2023-04-10T12:16:02;6.00;;;4.50;;
842;SDS011;407;48.884;9.126;2023-04-10T12:18:31;7.00;;;4.80;;
842;SDS011;407;48.884;9.126;2023-04-10T12:20:57;7.15;;;4.90;;
842;SDS011;407;48.884;9.126;2023-04-10T12:23:25;5.80;;;4.40;;
842;SDS011;407;48.884;9.126;2023-04-10T12:25:53;6.25;;;4.70;;
842;SDS011;407;48.884;9.126;2023-04-10T12:28:34;6.63;;;4.65;;
842;SDS011;407;48.884;9.126;2023-04-10T12:31:01;6.90;;;4.80;;
842;SDS011;407;48.884;9.126;2023-04-10T12:33:27;6.28;;;4.82;;
842;SDS011;407;48.884;9.126;2023-04-10T12:35:53;6.10;;;4.50;;
842;SDS011;407;48.884;9.126;2023-04-10T12:38:38;6.60;;;4.40;;
842;SDS011;407;48.884;9.126;2023-04-10T12:41:10;6.50;;;4.90;;
842;SDS011;407;48.884;9.126;2023-04-10T12:43:40;6.15;;;4.57;;
842;SDS011;407;48.884;9.126;2023-04-10T12:46:09;6.37;;;4.63;;
842;SDS011;407;48.884;9.126;2023-04-10T12:48:46;6.20;;;4.40;;
842;SDS011;407;48.884;9.126;2023-04-10T12:51:11;5.93;;;4.28;;
842;SDS011;407;48.884;9.126;2023-04-10T12:53:46;6.60;;;5.00;;
842;SDS011;407;48.884;9.126;2023-04-10T12:56:12;6.13;;;4.50;;
842;SDS011;407;48.884;9.126;2023-04-10T12:58:38;6.50;;;5.03;;
842;SDS011;407;48.884;9.126;2023-04-10T13:01:07;6.60;;;5.10;;
842;SDS011;407;48.884;9.126;2023-04-10T13:03:33;6.47;;;5.13;;
842;SDS011;407;48.884;9.126;2023-04-10T13:06:06;6.15;;;4.70;;
842;SDS011;407;48.884;9.126;2023-04-10T13:08:32;5.95;;;4.70;;
842;SDS011;407;48.884;9.126;2023-04-10T13:10:58;6.05;;;4.65;;
842;SDS011;407;48.884;9.126;2023-04-10T13:13:30;6.80;;;5.30;;
842;SDS011;407;48.884;9.126;2023-04-10T13:15:56;6.50;;;5.20;;
842;SDS011;407;48.884;9.126;2023-04-10T13:18:25;6.22;;;5.47;;
842;SDS011;407;48.884;9.126;2023-04-10T13:20:50;6.40;;;5.33;;
842;SDS011;407;48.884;9.126;2023-04-10T13:23:16;6.10;;;5.00;;
842;SDS011;407;48.884;9.126;2023-04-10T13:25:42;6.20;;;5.00;;
842;SDS011;407;48.884;9.126;2023-04-10T13:28:08;6.10;;;5.10;;
842;SDS011;407;48.884;9.126;2023-04-10T13:30:39;6.57;;;5.15;;
842;SDS011;407;48.884;9.126;2023-04-10T13:33:06;6.95;;;5.35;;
842;SDS011;407;48.884;9.126;2023-04-10T13:35:34;7.00;;;5.20;;
842;SDS011;407;48.884;9.126;2023-04-10T13:37:59;5.90;;;5.30;;
842;SDS011;407;48.884;9.126;2023-04-10T13:40:25;6.20;;;5.20;;
842;SDS011;407;48.884;9.126;2023-04-10T13:42:51;6.50;;;5.10;;
842;SDS011;407;48.884;9.126;2023-04-10T13:45:16;6.30;;;5.13;;
842;SDS011;407;48.884;9.126;2023-04-10T13:47:42;6.30;;;5.47;;
842;SDS011;407;48.884;9.126;2023-04-10T13:50:08;6.17;;;5.20;;
842;SDS011;407;48.884;9.126;2023-04-10T13:52:34;6.30;;;5.30;;
842;SDS011;407;48.884;9.126;2023-04-10T13:54:59;11.80;;;5.40;;
842;SDS011;407;48.884;9.126;2023-04-10T13:57:25;6.15;;;5.00;;
842;SDS011;407;48.884;9.126;2023-04-10T13:59:52;6.80;;;5.20;;
842;SDS011;407;48.884;9.126;2023-04-10T14:02:17;7.70;;;5.30;;
842;SDS011;407;48.884;9.126;2023-04-10T14:04:43;6.10;;;4.90;;
842;SDS011;407;48.884;9.126;2023-04-10T14:07:10;6.60;;;4.97;;
842;SDS011;407;48.884;9.126;2023-04-10T14:09:36;6.77;;;4.97;;
842;SDS011;407;48.884;9.126;2023-04-10T14:12:02;6.38;;;5.20;;
842;SDS011;407;48.884;9.126;2023-04-10T14:14:28;6.63;;;5.30;;
842;SDS011;407;48.884;9.126;2023-04-10T14:16:53;6.20;;;5.30;;
842;SDS011;407;48.884;9.126;2023-04-10T14:19:19;6.43;;;5.40;;
842;SDS011;407;48.884;9.126;2023-04-10T14:21:45;7.20;;;5.20;;
842;SDS011;407;48.884;9.126;2023-04-10T14:24:10;6.80;;;5.23;;
842;SDS011;407;48.884;9.126;2023-04-10T14:26:36;6.55;;;5.18;;
842;SDS011;407;48.884;9.126;2023-04-10T14:29:02;6.70;;;5.30;;
842;SDS011;407;48.884;9.126;2023-04-10T14:31:27;6.47;;;5.10;;
842;SDS011;407;48.884;9.126;2023-04-10T14:33:53;6.97;;;5.60;;
842;SDS011;407;48.884;9.126;2023-04-10T14:36:19;6.40;;;5.30;;
842;SDS011;407;48.884;9.126;2023-04-10T14:38:44;6.80;;;5.20;;
842;SDS011;407;48.884;9.126;2023-04-10T14:41:10;6.47;;;4.95;;
842;SDS011;407;48.884;9.126;2023-04-10T14:43:36;6.70;;;5.10;;
842;SDS011;407;48.884;9.126;2023-04-10T14:46:02;6.50;;;4.90;;
842;SDS011;407;48.884;9.126;2023-04-10T14:48:27;8.05;;;5.30;;
842;SDS011;407;48.884;9.126;2023-04-10T14:50:53;6.67;;;5.20;;
842;SDS011;407;48.884;9.126;2023-04-10T14:53:20;6.20;;;4.85;;
842;SDS011;407;48.884;9.126;2023-04-10T14:55:47;6.85;;;5.10;;
842;SDS011;407;48.884;9.126;2023-04-10T14:58:13;6.43;;;5.10;;
842;SDS011;407;48.884;9.126;2023-04-10T15:00:38;6.23;;;4.90;;
842;SDS011;407;48.884;9.126;2023-04-10T15:03:04;6.78;;;5.18;;
842;SDS011;407;48.884;9.126;2023-04-10T15:05:30;6.63;;;4.90;;
842;SDS011;407;48.884;9.126;2023-04-10T15:07:56;6.47;;;4.87;;
842;SDS011;407;48.884;9.126;2023-04-10T15:10:21;7.40;;;4.90;;
842;SDS011;407;48.884;9.126;2023-04-10T15:12:47;6.50;;;5.00;;
842;SDS011;407;48.884;9.126;2023-04-10T15:15:13;6.10;;;4.80;;
842;SDS011;407;48.884;9.126;2023-04-10T15:17:38;6.68;;;5.18;;
842;SDS011;407;48.884;9.126;2023-04-10T15:20:05;6.40;;;5.20;;
842;SDS011;407;48.884;9.126;2023-04-10T15:22:31;7.03;;;5.10;;
842;SDS011;407;48.884;9.126;2023-04-10T15:24:56;6.90;;;5.20;;
842;SDS011;407;48.884;9.126;2023-04-10T15:27:22;6.60;;;5.17;;
842;SDS011;407;48.884;9.126;2023-04-10T15:29:48;7.70;;;5.13;;
842;SDS011;407;48.884;9.126;2023-04-10T15:32:14;7.17;;;5.00;;
842;SDS011;407;48.884;9.126;2023-04-10T15:34:39;6.37;;;5.00;;
842;SDS011;407;48.884;9.126;2023-04-10T15:37:05;6.88;;;5.20;;
842;SDS011;407;48.884;9.126;2023-04-10T15:39:31;6.80;;;5.10;;
842;SDS011;407;48.884;9.126;2023-04-10T15:41:56;6.60;;;5.10;;
842;SDS011;407;48.884;9.126;2023-04-10T15:44:24;6.43;;;5.00;;
842;SDS011;407;48.884;9.126;2023-04-10T15:46:50;8.57;;;5.70;;
842;SDS011;407;48.884;9.126;2023-04-10T15:49:16;6.05;;;4.72;;
842;SDS011;407;48.884;9.126;2023-04-10T15:51:42;6.60;;;4.93;;
842;SDS011;407;48.884;9.126;2023-04-10T15:54:08;6.57;;;5.00;;
842;SDS011;407;48.884;9.126;2023-04-10T15:56:35;6.80;;;4.97;;
842;SDS011;407;48.884;9.126;2023-04-10T15:59:00;6.80;;;4.43;;
842;SDS011;407;48.884;9.126;2023-04-10T16:01:26;6.50;;;4.50;;
842;SDS011;407;48.884;9.126;2023-04-10T16:03:51;6.20;;;4.27;;
842;SDS011;407;48.884;9.126;2023-04-10T16:06:17;6.40;;;4.87;;
842;SDS011;407;48.884;9.126;2023-04-10T16:08:43;6.30;;;4.60;;
842;SDS011;407;48.884;9.126;2023-04-10T16:11:08;6.80;;;4.93;;
842;SDS011;407;48.884;9.126;2023-04-10T16:13:34;7.45;;;4.57;;
842;SDS011;407;48.884;9.126;2023-04-10T16:15:59;6.83;;;5.03;;